Time;durP1;ratioP1;P1;durP2;ratioP2;P2;SDS_P1;SDS_P2;PMS_P1;PMS_P2;Temp;Humidity;BMP_temperature;BMP_pressure;BME280_temperature;BME280_humidity;BME280_pressure;Samples;Min_cycle;Max_cycle;Signal;HPM_P1;HPM_P2
2022/12/27 00:02:23;;;;;;;0.65;0.20;;;6.80;99.90;;;;;;8262914;28;20109;-83
2022/12/27 00:06:26;;;;;;;0.32;0.30;;;6.80;99.90;;;;;;8245234;28;20041;-84
2022/12/27 00:10:27;;;;;;;0.20;0.10;;;6.60;99.90;;;;;;8244936;28;20359;-83
2022/12/27 00:14:28;;;;;;;0.32;0.10;;;6.40;99.90;;;;;;8244557;28;20031;-84
2022/12/27 00:18:28;;;;;;;0.35;0.20;;;6.30;99.90;;;;;;8259519;28;20038;-84
2022/12/27 00:22:29;;;;;;;0.40;0.20;;;6.40;99.90;;;;;;8257529;28;20530;-84
2022/12/27 00:26:31;;;;;;;0.60;0.25;;;6.40;99.90;;;;;;8243141;28;20030;-84
2022/12/27 00:30:32;;;;;;;0.35;0.20;;;6.40;99.90;;;;;;8244776;28;20089;-84
2022/12/27 00:34:32;;;;;;;1.45;0.32;;;6.30;99.90;;;;;;8244396;28;20034;-84
2022/12/27 00:38:34;;;;;;;0.50;0.10;;;6.30;99.90;;;;;;8269604;28;20073;-84
2022/12/27 00:42:34;;;;;;;0.10;0.10;;;6.20;99.90;;;;;;8267985;28;20030;-85
2022/12/27 00:46:35;;;;;;;0.47;0.30;;;5.90;99.90;;;;;;8245794;28;20054;-85
2022/12/27 00:50:35;;;;;;;0.40;0.20;;;5.70;99.90;;;;;;8251865;28;20018;-85
2022/12/27 00:54:36;;;;;;;0.00;0.00;;;5.30;99.90;;;;;;8245609;28;20113;-85
2022/12/27 00:58:37;;;;;;;0.47;0.03;;;5.20;99.90;;;;;;8262504;28;20022;-86
2022/12/27 01:02:38;;;;;;;0.30;0.10;;;5.20;99.90;;;;;;8277981;28;20026;-85
2022/12/27 01:06:39;;;;;;;0.45;0.30;;;5.30;99.90;;;;;;8251379;28;20054;-84
2022/12/27 01:10:40;;;;;;;0.80;0.30;;;5.30;99.90;;;;;;8251301;28;20018;-86
2022/12/27 01:14:41;;;;;;;0.38;0.13;;;5.20;99.90;;;;;;8267256;28;20030;-86
2022/12/27 01:18:41;;;;;;;0.75;0.30;;;5.10;99.90;;;;;;8266779;28;20034;-86
2022/12/27 01:22:42;;;;;;;0.40;0.30;;;5.00;99.90;;;;;;8267811;28;20030;-85
2022/12/27 01:26:43;;;;;;;0.88;0.20;;;4.90;99.90;;;;;;8267291;28;20030;-85
2022/12/27 01:30:43;;;;;;;0.60;0.30;;;4.70;99.90;;;;;;8250956;28;20478;-85
2022/12/27 01:34:44;;;;;;;0.28;0.20;;;4.60;99.90;;;;;;8257966;28;20513;-85
2022/12/27 01:38:46;;;;;;;2.20;0.40;;;4.50;99.90;;;;;;8287773;28;20026;-85
2022/12/27 01:42:54;;;;;;;0.70;0.40;;;4.30;99.90;;;;;;8268870;28;20037;-84
2022/12/27 01:46:54;;;;;;;0.10;0.10;;;4.10;99.90;;;;;;8250948;28;20030;-85
2022/12/27 01:50:59;;;;;;;2.25;0.32;;;4.10;99.90;;;;;;8252583;28;20443;-85
2022/12/27 01:55:11;;;;;;;1.98;0.40;;;3.90;99.90;;;;;;8258925;28;20105;-85
2022/12/27 01:59:13;;;;;;;1.15;0.30;;;3.70;99.90;;;;;;8284829;28;20030;-83
2022/12/27 02:03:25;;;;;;;0.60;0.40;;;3.80;99.90;;;;;;8275117;28;20084;-84
2022/12/27 02:07:37;;;;;;;0.40;0.35;;;3.60;99.90;;;;;;8273212;28;20410;-84
2022/12/27 02:11:49;;;;;;;3.67;0.45;;;3.50;99.90;;;;;;8269761;28;20080;-83
2022/12/27 02:15:50;;;;;;;1.33;0.50;;;3.40;99.90;;;;;;8279097;28;20486;-84
2022/12/27 02:20:13;;;;;;;0.50;0.30;;;3.40;99.90;;;;;;8284245;28;20041;-83
2022/12/27 02:24:32;;;;;;;0.98;0.40;;;3.40;99.90;;;;;;8263236;28;20165;-84
2022/12/27 02:33:02;;;;;;;1.77;0.20;;;2.90;99.90;;;;;;8199569;28;20134;-81
2022/12/27 02:37:08;;;;;;;0.80;0.47;;;2.80;99.90;;;;;;8201767;28;20081;-80
2022/12/27 02:54:12;;;;;;;0.85;0.40;;;2.80;99.90;;;;;;8201008;28;20468;-80
2022/12/27 02:58:53;;;;;;;0.57;0.40;;;2.60;99.90;;;;;;8200897;28;20031;-80
2022/12/27 03:03:20;;;;;;;1.47;0.40;;;2.10;99.90;;;;;;8187102;28;20053;-80
2022/12/27 03:07:44;;;;;;;2.33;0.60;;;1.90;99.90;;;;;;8197925;28;20294;-80
2022/12/27 03:16:30;;;;;;;1.02;0.30;;;1.70;99.90;;;;;;8200665;28;20030;-81
2022/12/27 03:33:38;;;;;;;1.17;0.40;;;1.40;99.90;;;;;;8201923;28;20038;-80
2022/12/27 03:38:02;;;;;;;0.30;0.30;;;1.40;99.90;;;;;;8198960;28;20031;-80
2022/12/27 03:46:32;;;;;;;0.50;0.30;;;1.10;99.90;;;;;;8200237;28;20114;-80
2022/12/27 03:51:03;;;;;;;0.82;0.40;;;1.00;99.90;;;;;;8198991;28;20027;-80
2022/12/27 03:55:04;;;;;;;0.90;0.57;;;1.00;99.90;;;;;;8191524;28;20042;-81
2022/12/27 03:59:06;;;;;;;0.68;0.43;;;0.90;99.90;;;;;;8200330;28;20090;-81
2022/12/27 04:03:07;;;;;;;0.90;0.40;;;0.80;99.90;;;;;;8200880;28;20106;-81
2022/12/27 04:07:07;;;;;;;0.60;0.30;;;0.80;99.90;;;;;;8197890;28;20070;-81
2022/12/27 04:37:03;;;;;;;1.77;0.40;;;0.20;99.90;;;;;;8205931;28;20460;-79
2022/12/27 04:58:19;;;;;;;1.42;0.60;;;-0.10;99.90;;;;;;8204546;28;20106;-79
2022/12/27 05:02:20;;;;;;;0.73;0.55;;;-0.20;99.90;;;;;;8203066;28;20027;-79
2022/12/27 05:06:20;;;;;;;0.40;0.40;;;-0.30;99.90;;;;;;8201762;28;20039;-80
2022/12/27 05:14:41;;;;;;;0.28;0.20;;;-0.40;99.90;;;;;;8202766;28;20670;-79
2022/12/27 05:18:41;;;;;;;0.55;0.38;;;-0.50;99.90;;;;;;8202207;28;20031;-79
2022/12/27 05:27:01;;;;;;;1.27;0.47;;;-0.60;99.90;;;;;;8203802;28;20038;-80
2022/12/27 05:31:01;;;;;;;0.43;0.30;;;-0.50;99.90;;;;;;8201994;28;20027;-79
2022/12/27 05:35:02;;;;;;;0.43;0.40;;;-0.40;99.90;;;;;;8201496;28;20110;-80
2022/12/27 05:39:03;;;;;;;0.32;0.28;;;-0.40;99.90;;;;;;8202576;28;20070;-80
2022/12/27 05:43:03;;;;;;;0.30;0.30;;;-0.30;99.90;;;;;;8203444;28;20595;-80
2022/12/27 05:47:04;;;;;;;0.75;0.50;;;-0.10;99.90;;;;;;8201226;28;20027;-80
2022/12/27 05:51:10;;;;;;;0.47;0.40;;;-0.20;99.90;;;;;;8195491;28;20023;-79
2022/12/27 05:55:11;;;;;;;0.47;0.30;;;-0.40;99.90;;;;;;8197910;28;20027;-80
2022/12/27 05:59:12;;;;;;;1.08;0.60;;;-0.60;99.90;;;;;;8204010;28;20034;-81
2022/12/27 06:03:12;;;;;;;0.80;0.40;;;-0.80;99.90;;;;;;8198837;28;20045;-80
2022/12/27 06:07:13;;;;;;;0.73;0.40;;;-0.80;99.90;;;;;;8206816;28;20097;-80
2022/12/27 06:11:16;;;;;;;4.25;1.23;;;-0.70;99.90;;;;;;8205115;28;20447;-80
2022/12/27 06:15:17;;;;;;;0.60;0.50;;;-0.40;99.90;;;;;;8195699;28;20121;-78
2022/12/27 06:19:18;;;;;;;1.48;0.73;;;-0.40;99.90;;;;;;8197442;28;20058;-79
2022/12/27 06:23:18;;;;;;;0.32;0.30;;;-0.50;99.90;;;;;;8187075;28;20027;-80
2022/12/27 06:27:19;;;;;;;1.20;0.22;;;-0.60;99.90;;;;;;8192069;28;20384;-80
2022/12/27 06:31:20;;;;;;;0.47;0.40;;;-0.90;99.90;;;;;;8192417;28;20037;-80
2022/12/27 06:35:21;;;;;;;0.75;0.50;;;-1.20;99.90;;;;;;8194147;28;20054;-81
2022/12/27 06:39:21;;;;;;;1.50;0.75;;;-1.30;99.90;;;;;;8186369;28;20059;-80
2022/12/27 06:43:22;;;;;;;2.67;1.33;;;-1.20;99.90;;;;;;8190209;28;20039;-80
2022/12/27 06:47:22;;;;;;;1.27;0.77;;;-1.20;99.90;;;;;;8193257;28;20035;-81
2022/12/27 06:51:23;;;;;;;1.05;0.73;;;-1.20;99.90;;;;;;8188297;28;20122;-81
2022/12/27 06:55:23;;;;;;;1.35;1.13;;;-1.20;99.90;;;;;;8186161;28;20027;-81
2022/12/27 06:59:24;;;;;;;1.60;1.20;;;-0.90;99.90;;;;;;8196153;28;20035;-80
2022/12/27 07:03:24;;;;;;;1.52;1.02;;;-0.80;99.90;;;;;;8192707;28;20198;-80
2022/12/27 07:07:25;;;;;;;1.42;1.00;;;-0.90;99.90;;;;;;8188207;28;20024;-79
2022/12/27 07:11:25;;;;;;;1.65;1.10;;;-0.90;99.90;;;;;;8190502;28;20031;-80
2022/12/27 07:15:26;;;;;;;1.75;1.10;;;-1.20;99.90;;;;;;8193464;28;20042;-80
2022/12/27 07:19:26;;;;;;;1.98;1.55;;;-1.30;99.90;;;;;;8191305;28;20091;-81
2022/12/27 07:23:27;;;;;;;3.65;2.17;;;-1.40;99.90;;;;;;8189395;28;20760;-81
2022/12/27 07:27:27;;;;;;;6.38;2.42;;;-1.30;99.90;;;;;;8187142;28;20070;-81
2022/12/27 07:31:31;;;;;;;4.85;2.00;;;-1.00;99.90;;;;;;8189483;28;20034;-81
2022/12/27 07:35:31;;;;;;;3.60;1.85;;;-1.20;99.90;;;;;;8189962;28;20050;-81
2022/12/27 07:39:32;;;;;;;2.75;1.55;;;-1.40;99.90;;;;;;8190063;28;20050;-81
2022/12/27 07:43:33;;;;;;;2.58;1.40;;;-1.50;99.90;;;;;;8187689;28;20035;-80
2022/12/27 07:47:34;;;;;;;2.13;1.60;;;-1.60;99.90;;;;;;8187429;28;20138;-81
2022/12/27 07:51:35;;;;;;;2.80;1.50;;;-1.40;99.90;;;;;;8195834;28;20031;-81
2022/12/27 07:55:35;;;;;;;2.83;1.70;;;-0.90;99.90;;;;;;8202867;28;20031;-81
2022/12/27 07:59:36;;;;;;;2.90;1.60;;;-0.90;99.90;;;;;;8206478;28;20027;-80
2022/12/27 08:03:37;;;;;;;2.80;1.90;;;-1.00;99.90;;;;;;8202214;28;20030;-80
2022/12/27 08:07:39;;;;;;;3.47;1.98;;;-1.10;99.90;;;;;;8199338;28;20174;-81
2022/12/27 08:11:39;;;;;;;2.85;1.80;;;-1.10;99.90;;;;;;8205613;28;20136;-81
2022/12/27 08:15:41;;;;;;;2.70;1.77;;;-0.90;99.90;;;;;;8195018;28;20081;-80
2022/12/27 08:19:43;;;;;;;3.30;2.25;;;-0.70;99.90;;;;;;8199966;28;20054;-81
2022/12/27 08:23:44;;;;;;;2.85;1.67;;;-0.80;99.90;;;;;;8195757;28;20031;-81
2022/12/27 08:27:44;;;;;;;3.65;1.42;;;-0.60;99.90;;;;;;8204744;28;20033;-80
2022/12/27 08:31:45;;;;;;;2.38;1.15;;;-0.20;99.90;;;;;;8212207;28;20487;-80
2022/12/27 08:35:45;;;;;;;4.75;2.60;;;0.20;99.90;;;;;;8205258;28;20037;-80
2022/12/27 08:39:46;;;;;;;6.88;2.70;;;0.40;99.90;;;;;;8201990;28;20028;-81
2022/12/27 08:43:46;;;;;;;4.85;3.05;;;0.30;99.90;;;;;;8187345;28;20031;-81
2022/12/27 08:47:47;;;;;;;4.50;1.77;;;0.20;99.90;;;;;;8189657;28;20583;-81
2022/12/27 08:51:48;;;;;;;2.42;1.58;;;0.20;99.90;;;;;;8196696;28;20031;-81
2022/12/27 08:55:49;;;;;;;2.70;1.55;;;0.30;99.90;;;;;;8197865;28;20483;-81
2022/12/27 08:59:49;;;;;;;3.67;2.38;;;0.30;99.90;;;;;;8198587;28;20046;-80
2022/12/27 09:03:50;;;;;;;2.67;1.85;;;0.20;99.90;;;;;;8184734;28;20480;-81
2022/12/27 09:07:51;;;;;;;4.47;3.22;;;0.60;99.90;;;;;;8194321;28;20043;-81
2022/12/27 09:11:52;;;;;;;6.65;4.25;;;0.80;99.90;;;;;;8194487;28;20115;-81
2022/12/27 09:15:52;;;;;;;5.10;3.42;;;0.80;99.90;;;;;;8191538;28;20039;-80
2022/12/27 09:19:53;;;;;;;3.33;2.20;;;0.70;99.90;;;;;;8202313;28;20126;-78
2022/12/27 09:23:54;;;;;;;4.25;1.73;;;0.90;99.90;;;;;;8203410;28;20492;-80
2022/12/27 09:27:54;;;;;;;1.85;1.55;;;1.10;99.90;;;;;;8211939;28;20035;-80
2022/12/27 09:31:55;;;;;;;2.08;1.80;;;1.50;99.90;;;;;;8206259;28;20062;-80
2022/12/27 09:36:25;;;;;;;3.05;1.80;;;1.60;99.90;;;;;;8203526;28;20043;-80
2022/12/27 09:40:26;;;;;;;1.25;1.15;;;2.20;99.90;;;;;;8205109;28;20048;-79
2022/12/27 09:44:58;;;;;;;1.40;0.95;;;2.60;99.90;;;;;;8191534;28;20038;-80
2022/12/27 09:48:59;;;;;;;3.53;2.03;;;2.90;99.90;;;;;;8194363;28;20518;-79
2022/12/27 09:53:32;;;;;;;3.13;2.28;;;3.30;99.90;;;;;;8194108;28;20030;-79
2022/12/27 09:57:39;;;;;;;2.78;2.15;;;3.90;99.90;;;;;;8197484;28;20562;-79
2022/12/27 10:01:39;;;;;;;2.70;1.67;;;4.40;99.90;;;;;;8200210;28;20043;-78
2022/12/27 10:05:44;;;;;;;2.13;1.58;;;4.10;99.90;;;;;;8193128;28;20034;-79
2022/12/27 10:10:08;;;;;;;2.22;1.65;;;3.90;99.90;;;;;;8194314;28;20086;-79
2022/12/27 10:14:37;;;;;;;4.10;2.00;;;3.90;99.90;;;;;;8188341;28;20436;-79
2022/12/27 10:19:00;;;;;;;2.42;1.90;;;4.10;99.90;;;;;;8185531;28;20019;-79
2022/12/27 10:23:07;;;;;;;0.85;0.70;;;4.30;99.90;;;;;;8214420;28;20608;-79
2022/12/27 10:27:19;;;;;;;2.63;0.60;;;4.70;99.90;;;;;;8213505;28;20023;-81
2022/12/27 10:31:22;;;;;;;3.13;0.80;;;5.00;99.90;;;;;;8192266;28;20094;-81
2022/12/27 10:35:23;;;;;;;2.53;1.00;;;5.40;99.90;;;;;;8200338;28;20031;-79
2022/12/27 10:39:28;;;;;;;1.23;0.90;;;5.80;99.90;;;;;;8197115;28;20031;-79
2022/12/27 10:43:37;;;;;;;2.17;1.40;;;6.00;99.90;;;;;;8199691;28;20057;-79
2022/12/27 10:47:37;;;;;;;0.90;0.80;;;6.30;99.90;;;;;;8197048;28;20038;-79
2022/12/27 10:51:39;;;;;;;3.78;1.20;;;6.70;99.90;;;;;;8187778;28;20031;-81
2022/12/27 10:55:40;;;;;;;2.45;1.13;;;7.00;99.90;;;;;;8190244;28;20034;-80
2022/12/27 10:59:40;;;;;;;3.38;1.33;;;7.10;99.90;;;;;;8196304;28;20031;-81
2022/12/27 11:03:41;;;;;;;2.53;1.25;;;7.20;99.90;;;;;;8200439;28;20327;-80
2022/12/27 11:07:42;;;;;;;2.35;1.08;;;7.40;99.90;;;;;;8200078;28;20035;-81
2022/12/27 11:11:42;;;;;;;1.73;0.80;;;7.50;99.90;;;;;;8198329;28;20024;-81
2022/12/27 11:15:52;;;;;;;2.53;1.05;;;8.10;99.90;;;;;;8192155;28;20654;-82
2022/12/27 11:19:55;;;;;;;3.05;0.80;;;8.70;99.90;;;;;;8191314;28;20046;-83
2022/12/27 11:23:59;;;;;;;4.55;1.50;;;8.40;99.90;;;;;;8186550;28;20443;-83
2022/12/27 11:28:01;;;;;;;3.30;1.40;;;8.50;99.90;;;;;;8210013;28;20042;-83
2022/12/27 11:32:07;;;;;;;2.83;1.33;;;9.60;99.90;;;;;;8213129;28;20571;-82
2022/12/27 11:36:09;;;;;;;2.17;0.90;;;10.10;99.90;;;;;;8197154;28;20034;-82
2022/12/27 11:40:33;;;;;;;3.92;1.00;;;9.30;99.90;;;;;;8186373;28;20065;-82
2022/12/27 11:44:39;;;;;;;1.83;0.93;;;8.50;99.90;;;;;;8179684;28;20098;-80
2022/12/27 11:48:44;;;;;;;2.63;0.98;;;8.40;99.90;;;;;;8186166;28;20023;-83
2022/12/27 11:52:44;;;;;;;1.60;0.93;;;8.50;99.90;;;;;;8193187;28;20043;-83
2022/12/27 11:56:51;;;;;;;5.03;0.90;;;9.60;99.90;;;;;;8200227;28;20511;-82
2022/12/27 12:01:24;;;;;;;2.70;0.80;;;11.50;99.90;;;;;;8200292;28;20419;-81
2022/12/27 12:05:33;;;;;;;2.50;0.85;;;11.10;99.90;;;;;;8203964;28;20027;-81
2022/12/27 12:09:47;;;;;;;5.03;1.13;;;10.90;99.90;;;;;;8189911;28;20059;-82
2022/12/27 12:14:00;;;;;;;1.63;0.88;;;12.00;99.90;;;;;;8194297;28;20094;-80
2022/12/27 12:18:23;;;;;;;1.92;0.90;;;11.00;99.90;;;;;;8186594;28;20034;-81
2022/12/27 12:22:38;;;;;;;1.20;0.70;;;9.50;99.90;;;;;;8196540;28;20054;-82
2022/12/27 12:27:17;;;;;;;1.92;1.00;;;8.50;99.90;;;;;;8197865;28;20098;-81
2022/12/27 12:31:43;;;;;;;1.48;1.02;;;7.80;99.90;;;;;;8190938;28;20127;-81
2022/12/27 12:35:56;;;;;;;2.17;0.98;;;7.70;99.90;;;;;;8192210;28;20050;-82
2022/12/27 12:40:36;;;;;;;2.03;1.05;;;7.60;99.90;;;;;;8209113;28;20034;-81
2022/12/27 12:45:23;;;;;;;1.80;1.00;;;7.80;99.90;;;;;;8151350;28;20035;-82
2022/12/27 12:49:38;;;;;;;2.45;0.98;;;8.00;99.90;;;;;;8212307;28;20027;-82
2022/12/27 12:54:06;;;;;;;1.20;0.75;;;7.80;99.90;;;;;;8215458;28;20026;-82
2022/12/27 12:58:22;;;;;;;2.58;0.85;;;7.90;99.90;;;;;;8213564;28;20054;-81
2022/12/27 13:02:47;;;;;;;3.08;1.00;;;7.90;99.90;;;;;;8204303;28;20059;-82
2022/12/27 13:07:26;;;;;;;1.17;0.82;;;7.90;99.90;;;;;;8143364;29;20380;-81
2022/12/27 13:11:52;;;;;;;2.10;0.80;;;7.90;99.90;;;;;;8135620;28;20059;-81
2022/12/27 13:16:10;;;;;;;1.27;0.63;;;8.10;99.90;;;;;;8133548;29;20040;-81
2022/12/27 13:20:20;;;;;;;1.05;0.80;;;8.00;99.90;;;;;;8129856;29;20102;-81
2022/12/27 13:24:38;;;;;;;2.53;0.73;;;7.80;99.90;;;;;;8132991;29;20025;-81
2022/12/27 13:29:03;;;;;;;0.80;0.70;;;7.80;99.90;;;;;;8135526;29;20384;-81
2022/12/27 13:33:25;;;;;;;2.40;0.88;;;7.70;99.90;;;;;;8140561;29;20032;-81
2022/12/27 13:37:44;;;;;;;2.25;0.80;;;7.70;99.90;;;;;;8151913;29;20032;-81
2022/12/27 13:42:23;;;;;;;2.20;1.10;;;7.60;99.90;;;;;;8135801;29;20489;-81
2022/12/27 13:46:44;;;;;;;4.53;1.02;;;7.40;99.90;;;;;;8135194;29;20127;-81
2022/12/27 13:51:01;;;;;;;2.95;0.88;;;7.20;99.90;;;;;;8135436;29;20516;-81
2022/12/27 13:55:51;;;;;;;2.22;0.80;;;7.10;99.90;;;;;;8138718;29;20095;-82
2022/12/27 14:00:12;;;;;;;3.20;0.93;;;7.10;99.90;;;;;;8035839;29;20037;-81
2022/12/27 14:04:44;;;;;;;2.33;0.95;;;7.20;99.90;;;;;;8093913;29;20032;-82
2022/12/27 14:09:22;;;;;;;2.65;1.00;;;7.00;99.90;;;;;;8143024;29;20060;-81
2022/12/27 14:13:25;;;;;;;2.78;1.08;;;6.80;99.90;;;;;;8138846;29;20032;-81
2022/12/27 14:17:54;;;;;;;1.73;0.77;;;6.60;99.90;;;;;;8136574;29;20035;-81
2022/12/27 14:22:03;;;;;;;2.42;0.90;;;6.50;99.90;;;;;;8134672;29;20099;-81
2022/12/27 14:26:48;;;;;;;0.98;0.85;;;6.50;99.90;;;;;;8136246;29;20028;-81
2022/12/27 14:31:07;;;;;;;1.55;0.95;;;6.50;99.90;;;;;;8135917;23;20077;-84
2022/12/27 14:35:16;;;;;;;4.03;1.02;;;6.40;99.90;;;;;;8104461;29;20021;-84
2022/12/27 14:39:51;;;;;;;0.95;0.70;;;6.30;99.90;;;;;;8099745;29;20501;-84
2022/12/27 14:44:09;;;;;;;2.10;0.88;;;6.70;99.90;;;;;;8079861;29;20093;-84
2022/12/27 14:48:30;;;;;;;2.90;0.80;;;6.40;99.90;;;;;;8074830;29;20029;-84
2022/12/27 14:52:49;;;;;;;2.25;0.80;;;6.10;99.90;;;;;;8059251;29;20598;-84
2022/12/27 14:57:23;;;;;;;2.25;0.70;;;6.10;99.90;;;;;;8082593;29;20032;-85
2022/12/27 15:01:38;;;;;;;3.58;0.90;;;5.90;99.90;;;;;;8096884;29;20127;-84
2022/12/27 15:06:11;;;;;;;3.20;0.70;;;5.70;99.90;;;;;;8081593;29;20036;-84
2022/12/27 15:10:43;;;;;;;4.72;0.90;;;5.60;99.90;;;;;;8035721;29;20043;-84
2022/12/27 15:15:02;;;;;;;2.90;0.60;;;5.40;99.90;;;;;;8084377;29;20085;-84
2022/12/27 15:19:27;;;;;;;1.37;0.90;;;5.00;99.90;;;;;;8061600;29;20039;-84
2022/12/27 15:23:40;;;;;;;1.10;0.75;;;4.80;99.90;;;;;;8080764;29;20036;-84
2022/12/27 15:27:46;;;;;;;2.78;0.90;;;4.50;99.90;;;;;;8070961;29;20076;-84
2022/12/27 15:31:59;;;;;;;2.55;0.70;;;4.30;99.90;;;;;;8076246;29;20112;-83
2022/12/27 15:36:05;;;;;;;2.60;0.75;;;4.20;99.90;;;;;;8075033;29;20067;-83
2022/12/27 15:40:37;;;;;;;1.08;0.70;;;4.10;99.90;;;;;;8065008;29;20032;-84
2022/12/27 15:45:01;;;;;;;6.72;2.47;;;3.80;99.90;;;;;;8065580;29;20138;-83
2022/12/27 15:49:56;;;;;;;2.25;1.63;;;3.70;99.90;;;;;;8076113;29;20035;-83
2022/12/27 15:54:14;;;;;;;3.25;2.30;;;3.60;99.90;;;;;;8052506;29;20074;-83
2022/12/27 15:58:20;;;;;;;2.95;1.92;;;3.40;99.90;;;;;;8079902;29;20533;-82
2022/12/27 16:02:45;;;;;;;2.72;1.63;;;3.30;99.90;;;;;;8074610;29;20126;-82
2022/12/27 16:06:49;;;;;;;16.63;8.80;;;3.30;99.90;;;;;;8073869;29;20057;-82
2022/12/27 16:10:50;;;;;;;3.00;1.50;;;3.30;99.90;;;;;;8078470;29;20029;-82
2022/12/27 16:15:52;;;;;;;1.83;0.73;;;3.30;99.90;;;;;;8085029;29;20041;-82
2022/12/27 16:20:15;;;;;;;1.15;0.82;;;3.10;99.90;;;;;;7974126;29;20436;-81
2022/12/27 16:24:23;;;;;;;0.90;0.65;;;2.90;99.90;;;;;;8031850;29;20029;-82
2022/12/27 16:28:26;;;;;;;3.50;1.08;;;2.60;99.90;;;;;;8074679;29;20036;-81
2022/12/27 16:32:27;;;;;;;0.98;0.88;;;2.50;99.90;;;;;;8076790;29;20036;-82
2022/12/27 16:36:31;;;;;;;1.73;1.15;;;2.40;99.90;;;;;;8078744;29;20061;-82
2022/12/27 16:40:49;;;;;;;2.72;1.17;;;2.40;99.90;;;;;;8078355;29;20032;-82
2022/12/27 16:45:01;;;;;;;2.03;1.35;;;2.30;99.90;;;;;;8077602;29;20029;-82
2022/12/27 16:49:31;;;;;;;4.05;1.90;;;2.20;99.90;;;;;;8075854;29;20029;-82
2022/12/27 16:53:57;;;;;;;1.90;1.30;;;2.20;99.90;;;;;;8083209;29;20055;-82
2022/12/27 16:58:29;;;;;;;1.73;1.08;;;2.20;99.90;;;;;;8083001;29;20777;-81
2022/12/27 17:02:32;;;;;;;3.13;1.58;;;2.10;99.90;;;;;;8068597;29;20045;-82
2022/12/27 17:06:35;;;;;;;2.67;1.42;;;2.10;99.90;;;;;;8076723;29;20041;-81
2022/12/27 17:10:46;;;;;;;2.65;1.75;;;2.10;99.90;;;;;;8099029;29;20089;-79
2022/12/27 17:14:52;;;;;;;4.65;2.55;;;2.00;99.90;;;;;;8090603;29;20116;-80
2022/12/27 17:19:14;;;;;;;6.05;3.30;;;2.00;99.90;;;;;;8072477;29;20431;-80
2022/12/27 17:23:15;;;;;;;7.20;4.25;;;2.00;99.90;;;;;;8072476;29;20104;-81
2022/12/27 17:27:58;;;;;;;7.05;3.38;;;1.90;99.90;;;;;;8070985;29;20044;-81
2022/12/27 17:32:20;;;;;;;4.72;2.22;;;1.80;99.90;;;;;;8065815;29;20514;-82
2022/12/27 17:36:32;;;;;;;8.82;4.63;;;1.60;99.90;;;;;;8071628;29;20115;-82
2022/12/27 17:40:45;;;;;;;12.52;6.03;;;1.60;99.90;;;;;;8074476;29;20044;-82
2022/12/27 17:45:09;;;;;;;13.70;7.55;;;1.60;99.90;;;;;;8076783;29;20129;-82
2022/12/27 17:49:10;;;;;;;6.57;4.30;;;1.60;99.90;;;;;;8060949;29;20040;-82
2022/12/27 18:02:04;;;;;;;9.38;4.55;;;2.00;99.90;;;;;;8074181;29;20552;-82
2022/12/27 18:06:05;;;;;;;13.65;6.18;;;1.80;99.90;;;;;;8076207;29;20025;-81
2022/12/27 18:10:22;;;;;;;8.85;4.88;;;1.60;99.90;;;;;;8076180;29;20033;-82
2022/12/27 18:14:22;;;;;;;6.43;3.20;;;1.40;99.90;;;;;;8071345;29;20084;-82
2022/12/27 18:18:30;;;;;;;3.08;2.17;;;1.10;99.90;;;;;;8075932;29;20505;-82
2022/12/27 18:22:31;;;;;;;10.05;4.38;;;1.00;99.90;;;;;;8075968;29;20113;-82
2022/12/27 18:26:37;;;;;;;12.50;5.30;;;0.90;99.90;;;;;;8071344;29;20044;-82
2022/12/27 18:30:45;;;;;;;11.25;6.18;;;0.90;99.90;;;;;;8074562;29;20060;-82
2022/12/27 18:34:53;;;;;;;12.30;6.97;;;0.80;99.90;;;;;;8074623;29;20505;-82
2022/12/27 18:39:00;;;;;;;11.18;6.05;;;0.90;99.90;;;;;;8084534;29;20029;-82
2022/12/27 18:43:00;;;;;;;11.68;5.68;;;0.80;99.90;;;;;;8069345;29;20047;-82
2022/12/27 18:47:03;;;;;;;8.57;5.20;;;0.80;99.90;;;;;;8074022;29;20406;-82
2022/12/27 18:51:03;;;;;;;10.00;5.90;;;0.60;99.90;;;;;;8075862;29;20029;-82
2022/12/27 18:55:15;;;;;;;12.27;7.38;;;0.50;99.90;;;;;;8074688;29;20168;-82
2022/12/27 18:59:26;;;;;;;11.90;5.90;;;0.40;99.90;;;;;;8070621;29;20025;-82
2022/12/27 19:03:28;;;;;;;14.02;6.60;;;0.30;99.90;;;;;;8066544;29;20440;-81
2022/12/27 19:07:32;;;;;;;7.32;4.13;;;0.60;99.90;;;;;;8071154;29;20029;-81
2022/12/27 19:11:33;;;;;;;5.43;3.05;;;0.80;99.90;;;;;;8079275;29;20382;-82
2022/12/27 19:15:41;;;;;;;7.30;2.97;;;0.90;99.90;;;;;;8072076;29;20029;-81
2022/12/27 19:19:46;;;;;;;5.13;3.03;;;0.70;99.90;;;;;;8071681;29;20490;-81
2022/12/27 19:23:48;;;;;;;3.20;2.65;;;0.40;99.90;;;;;;8073758;29;20061;-82
2022/12/27 19:28:10;;;;;;;7.43;2.65;;;0.40;99.90;;;;;;8067804;29;20073;-82
2022/12/27 19:32:11;;;;;;;4.22;2.13;;;0.40;99.90;;;;;;8070774;29;20029;-81
2022/12/27 19:36:12;;;;;;;3.15;1.90;;;0.60;99.90;;;;;;8073266;29;20281;-81
2022/12/27 19:40:14;;;;;;;2.22;1.50;;;0.80;99.90;;;;;;8074203;29;20435;-81
2022/12/27 19:44:15;;;;;;;2.78;1.95;;;0.90;99.90;;;;;;8073655;29;20037;-82
2022/12/27 19:48:15;;;;;;;3.08;2.20;;;0.70;99.90;;;;;;8073954;29;20067;-82
2022/12/27 19:52:22;;;;;;;3.80;2.45;;;0.60;99.90;;;;;;8074239;29;20405;-80
2022/12/27 19:56:22;;;;;;;3.42;2.58;;;0.40;99.90;;;;;;8071182;29;20036;-81
2022/12/27 20:00:23;;;;;;;2.92;2.28;;;0.30;99.90;;;;;;8066382;29;20526;-81
2022/12/27 20:04:23;;;;;;;4.35;2.90;;;0.20;99.90;;;;;;8071241;29;20033;-80
2022/12/27 20:08:25;;;;;;;5.82;3.42;;;0.00;99.90;;;;;;8073032;29;20033;-81
2022/12/27 20:12:26;;;;;;;5.47;3.50;;;0.00;99.90;;;;;;8073533;29;20037;-81
2022/12/27 20:16:27;;;;;;;5.93;3.58;;;-0.30;99.90;;;;;;8069991;29;20112;-80
2022/12/27 20:20:27;;;;;;;5.05;3.22;;;-0.30;99.90;;;;;;8073777;29;20063;-81
2022/12/27 20:24:30;;;;;;;5.47;3.72;;;-0.20;99.90;;;;;;8075651;29;20041;-82
2022/12/27 20:28:32;;;;;;;7.97;3.60;;;-0.20;99.90;;;;;;8075392;29;20049;-81
2022/12/27 20:32:32;;;;;;;5.82;2.78;;;-0.40;99.90;;;;;;8074008;29;20029;-81
2022/12/27 20:36:33;;;;;;;4.20;2.70;;;-0.40;99.90;;;;;;8071142;29;20029;-81
2022/12/27 20:40:33;;;;;;;3.92;2.47;;;-0.40;99.90;;;;;;8071908;29;20025;-81
2022/12/27 20:44:34;;;;;;;4.47;2.58;;;-0.50;99.90;;;;;;8070859;29;20401;-82
2022/12/27 20:48:39;;;;;;;5.28;3.90;;;-0.50;99.90;;;;;;8064947;29;20504;-81
2022/12/27 20:52:40;;;;;;;6.13;3.80;;;-0.60;99.90;;;;;;8070505;29;20037;-81
2022/12/27 20:56:40;;;;;;;6.10;3.65;;;-0.70;99.90;;;;;;8071197;29;20120;-81
2022/12/27 21:00:41;;;;;;;5.05;3.70;;;-0.80;99.90;;;;;;8072727;29;20040;-82
2022/12/27 21:04:41;;;;;;;5.60;3.55;;;-0.80;99.90;;;;;;8069281;29;20033;-81
2022/12/27 21:08:42;;;;;;;6.43;4.70;;;-0.80;99.90;;;;;;8072596;29;20025;-81
2022/12/27 21:12:43;;;;;;;5.18;3.50;;;-0.80;99.90;;;;;;8073952;29;20506;-81
2022/12/27 21:16:43;;;;;;;6.72;3.97;;;-0.80;99.90;;;;;;8081701;29;20048;-81
2022/12/27 21:20:44;;;;;;;8.00;4.00;;;-0.80;99.90;;;;;;8085421;29;20029;-80
2022/12/27 21:24:44;;;;;;;5.22;2.95;;;-0.90;99.90;;;;;;8095515;29;20059;-80
2022/12/27 21:28:45;;;;;;;6.55;3.40;;;-1.10;99.90;;;;;;8076067;29;20025;-80
2022/12/27 21:32:46;;;;;;;3.75;2.47;;;-1.10;99.90;;;;;;8074605;29;20033;-80
2022/12/27 21:36:51;;;;;;;6.57;2.78;;;-1.20;99.90;;;;;;8070314;29;20033;-80
2022/12/27 21:41:00;;;;;;;4.70;3.40;;;-1.20;99.90;;;;;;8072040;29;20132;-80
2022/12/27 21:45:00;;;;;;;6.28;2.78;;;-1.30;99.90;;;;;;8080828;29;20072;-81
2022/12/27 21:49:07;;;;;;;2.85;2.13;;;-1.20;99.90;;;;;;8070682;29;20032;-80
2022/12/27 21:53:07;;;;;;;3.20;1.90;;;-1.10;99.90;;;;;;8075687;29;20028;-80
2022/12/27 21:57:08;;;;;;;3.70;2.13;;;-1.10;99.90;;;;;;8073525;29;20089;-80
2022/12/27 22:01:21;;;;;;;2.50;1.77;;;-1.20;99.90;;;;;;8069267;29;20036;-80
2022/12/27 22:05:21;;;;;;;2.58;1.65;;;-1.20;99.90;;;;;;8080783;29;20049;-80
2022/12/27 22:09:22;;;;;;;1.85;1.40;;;-1.10;99.90;;;;;;8065881;29;20028;-80
2022/12/27 22:13:23;;;;;;;2.38;1.40;;;-1.10;99.90;;;;;;8071706;29;20079;-79
2022/12/27 22:17:23;;;;;;;2.50;1.38;;;-1.00;99.90;;;;;;8083460;29;20029;-81
2022/12/27 22:21:30;;;;;;;1.77;1.50;;;-1.10;99.90;;;;;;8071334;29;20025;-80
2022/12/27 22:25:31;;;;;;;2.83;1.73;;;-1.10;99.90;;;;;;8073789;29;20089;-80
2022/12/27 22:29:31;;;;;;;2.05;1.58;;;-1.20;99.90;;;;;;8070568;29;20029;-80
2022/12/27 22:33:33;;;;;;;3.17;1.75;;;-1.20;99.90;;;;;;8070184;29;20090;-81
2022/12/27 22:37:33;;;;;;;4.70;2.40;;;-1.20;99.90;;;;;;8070110;29;20047;-80
2022/12/27 22:41:35;;;;;;;3.88;2.45;;;-1.30;99.90;;;;;;8080512;29;20036;-80
2022/12/27 22:45:40;;;;;;;6.35;3.85;;;-1.20;99.90;;;;;;8080333;29;20029;-80
2022/12/27 22:49:40;;;;;;;3.65;2.45;;;-1.10;99.90;;;;;;8073513;29;20037;-80
2022/12/27 22:53:41;;;;;;;2.10;1.67;;;-0.70;99.90;;;;;;8073737;29;20494;-80
2022/12/27 22:57:42;;;;;;;2.95;1.95;;;-0.40;99.90;;;;;;8079825;29;20025;-80
2022/12/27 23:01:44;;;;;;;3.90;2.20;;;-0.40;99.90;;;;;;8086866;29;20108;-80
2022/12/27 23:05:44;;;;;;;2.85;1.73;;;-0.50;99.90;;;;;;8075437;29;20029;-82
2022/12/27 23:09:45;;;;;;;5.35;3.78;;;-0.60;99.90;;;;;;8055680;29;20532;-81
2022/12/27 23:13:47;;;;;;;4.53;2.63;;;-0.60;99.90;;;;;;8072844;29;20025;-81
2022/12/27 23:17:47;;;;;;;3.72;2.58;;;-0.60;99.90;;;;;;8076141;29;20528;-81
2022/12/27 23:21:48;;;;;;;5.47;2.20;;;-0.70;99.90;;;;;;8072889;29;20036;-81